sensor_id;sensor_type;location;lat;lon;timestamp;P1;durP1;ratioP1;P2;durP2;ratioP2
47589;SDS011;33316;52.298;9.056;2023-05-07T00:02:10;32.65;;;22.67;;
47589;SDS011;33316;52.298;9.056;2023-05-07T00:04:37;32.95;;;22.73;;
47589;SDS011;33316;52.298;9.056;2023-05-07T00:07:06;34.78;;;24.13;;
47589;SDS011;33316;52.298;9.056;2023-05-07T00:09:32;34.38;;;23.63;;
47589;SDS011;33316;52.298;9.056;2023-05-07T00:11:59;35.60;;;24.08;;
47589;SDS011;33316;52.298;9.056;2023-05-07T00:14:27;34.17;;;23.17;;
47589;SDS011;33316;52.298;9.056;2023-05-07T00:16:53;34.90;;;21.65;;
47589;SDS011;33316;52.298;9.056;2023-05-07T00:19:21;32.78;;;22.77;;
47589;SDS011;33316;52.298;9.056;2023-05-07T00:21:47;32.33;;;21.92;;
47589;SDS011;33316;52.298;9.056;2023-05-07T00:24:14;32.72;;;20.63;;
47589;SDS011;33316;52.298;9.056;2023-05-07T00:26:41;34.40;;;23.52;;
47589;SDS011;33316;52.298;9.056;2023-05-07T00:29:08;32.72;;;22.17;;
47589;SDS011;33316;52.298;9.056;2023-05-07T00:31:39;36.40;;;23.00;;
47589;SDS011;33316;52.298;9.056;2023-05-07T00:34:05;36.42;;;23.65;;
47589;SDS011;33316;52.298;9.056;2023-05-07T00:36:32;39.88;;;25.77;;
47589;SDS011;33316;52.298;9.056;2023-05-07T00:38:59;38.90;;;25.67;;
47589;SDS011;33316;52.298;9.056;2023-05-07T00:41:28;36.20;;;25.05;;
47589;SDS011;33316;52.298;9.056;2023-05-07T00:43:55;35.42;;;25.42;;
47589;SDS011;33316;52.298;9.056;2023-05-07T00:46:22;36.00;;;25.05;;
47589;SDS011;33316;52.298;9.056;2023-05-07T00:48:51;38.20;;;26.88;;
47589;SDS011;33316;52.298;9.056;2023-05-07T00:51:18;36.78;;;25.38;;
47589;SDS011;33316;52.298;9.056;2023-05-07T00:53:45;41.22;;;27.50;;
47589;SDS011;33316;52.298;9.056;2023-05-07T00:56:13;40.75;;;28.45;;
47589;SDS011;33316;52.298;9.056;2023-05-07T00:58:40;38.00;;;27.55;;
47589;SDS011;33316;52.298;9.056;2023-05-07T01:01:07;38.72;;;26.85;;
47589;SDS011;33316;52.298;9.056;2023-05-07T01:03:33;39.78;;;26.60;;
47589;SDS011;33316;52.298;9.056;2023-05-07T01:06:01;41.60;;;29.35;;
47589;SDS011;33316;52.298;9.056;2023-05-07T01:08:29;39.03;;;28.08;;
47589;SDS011;33316;52.298;9.056;2023-05-07T01:11:00;47.22;;;30.23;;
47589;SDS011;33316;52.298;9.056;2023-05-07T01:13:27;39.40;;;27.00;;
47589;SDS011;33316;52.298;9.056;2023-05-07T01:15:54;42.28;;;27.30;;
47589;SDS011;33316;52.298;9.056;2023-05-07T01:18:20;39.38;;;27.17;;
47589;SDS011;33316;52.298;9.056;2023-05-07T01:20:48;38.67;;;26.60;;
47589;SDS011;33316;52.298;9.056;2023-05-07T01:23:16;38.08;;;27.52;;
47589;SDS011;33316;52.298;9.056;2023-05-07T01:25:50;39.67;;;26.02;;
47589;SDS011;33316;52.298;9.056;2023-05-07T01:28:17;42.22;;;28.27;;
47589;SDS011;33316;52.298;9.056;2023-05-07T01:30:44;44.40;;;28.08;;
47589;SDS011;33316;52.298;9.056;2023-05-07T01:33:14;40.08;;;27.42;;
47589;SDS011;33316;52.298;9.056;2023-05-07T01:35:45;40.65;;;27.42;;
47589;SDS011;33316;52.298;9.056;2023-05-07T01:38:15;42.38;;;27.38;;
47589;SDS011;33316;52.298;9.056;2023-05-07T01:40:47;39.58;;;27.08;;
47589;SDS011;33316;52.298;9.056;2023-05-07T01:43:14;42.13;;;27.65;;
47589;SDS011;33316;52.298;9.056;2023-05-07T01:45:41;46.53;;;29.25;;
47589;SDS011;33316;52.298;9.056;2023-05-07T01:48:10;39.92;;;27.02;;
47589;SDS011;33316;52.298;9.056;2023-05-07T01:50:38;43.42;;;28.08;;
47589;SDS011;33316;52.298;9.056;2023-05-07T01:53:06;37.47;;;26.15;;
47589;SDS011;33316;52.298;9.056;2023-05-07T01:55:34;39.88;;;26.85;;
47589;SDS011;33316;52.298;9.056;2023-05-07T01:58:01;42.60;;;27.73;;
47589;SDS011;33316;52.298;9.056;2023-05-07T02:00:28;38.22;;;26.50;;
47589;SDS011;33316;52.298;9.056;2023-05-07T02:02:58;36.92;;;24.73;;
47589;SDS011;33316;52.298;9.056;2023-05-07T02:05:24;38.83;;;26.23;;
47589;SDS011;33316;52.298;9.056;2023-05-07T02:07:53;34.25;;;24.33;;
47589;SDS011;33316;52.298;9.056;2023-05-07T02:10:20;36.40;;;23.88;;
47589;SDS011;33316;52.298;9.056;2023-05-07T02:12:48;34.58;;;24.02;;
47589;SDS011;33316;52.298;9.056;2023-05-07T02:15:17;35.08;;;24.85;;
47589;SDS011;33316;52.298;9.056;2023-05-07T02:17:57;34.85;;;23.65;;
47589;SDS011;33316;52.298;9.056;2023-05-07T02:20:27;32.50;;;22.90;;
47589;SDS011;33316;52.298;9.056;2023-05-07T02:22:54;35.58;;;23.40;;
47589;SDS011;33316;52.298;9.056;2023-05-07T02:25:21;35.75;;;24.75;;
47589;SDS011;33316;52.298;9.056;2023-05-07T02:27:49;42.40;;;26.35;;
47589;SDS011;33316;52.298;9.056;2023-05-07T02:30:15;40.03;;;26.60;;
47589;SDS011;33316;52.298;9.056;2023-05-07T02:32:42;40.38;;;24.25;;
47589;SDS011;33316;52.298;9.056;2023-05-07T02:35:09;35.70;;;22.35;;
47589;SDS011;33316;52.298;9.056;2023-05-07T02:37:39;35.38;;;22.20;;
47589;SDS011;33316;52.298;9.056;2023-05-07T02:40:06;34.92;;;23.08;;
47589;SDS011;33316;52.298;9.056;2023-05-07T02:42:33;36.15;;;22.90;;
47589;SDS011;33316;52.298;9.056;2023-05-07T02:45:01;37.72;;;24.17;;
47589;SDS011;33316;52.298;9.056;2023-05-07T02:47:28;37.38;;;25.35;;
47589;SDS011;33316;52.298;9.056;2023-05-07T02:49:55;34.22;;;22.58;;
47589;SDS011;33316;52.298;9.056;2023-05-07T02:52:22;34.05;;;22.08;;
47589;SDS011;33316;52.298;9.056;2023-05-07T02:54:49;38.75;;;23.20;;
47589;SDS011;33316;52.298;9.056;2023-05-07T02:57:16;32.92;;;22.13;;
47589;SDS011;33316;52.298;9.056;2023-05-07T02:59:43;36.20;;;22.35;;
47589;SDS011;33316;52.298;9.056;2023-05-07T03:02:13;35.05;;;21.45;;
47589;SDS011;33316;52.298;9.056;2023-05-07T03:04:40;37.55;;;22.83;;
47589;SDS011;33316;52.298;9.056;2023-05-07T03:07:07;34.58;;;21.92;;
47589;SDS011;33316;52.298;9.056;2023-05-07T03:09:33;36.13;;;21.75;;
47589;SDS011;33316;52.298;9.056;2023-05-07T03:12:00;31.20;;;20.52;;
47589;SDS011;33316;52.298;9.056;2023-05-07T03:14:27;33.83;;;22.05;;
47589;SDS011;33316;52.298;9.056;2023-05-07T03:16:54;34.15;;;20.95;;
47589;SDS011;33316;52.298;9.056;2023-05-07T03:19:22;32.25;;;19.42;;
47589;SDS011;33316;52.298;9.056;2023-05-07T03:21:48;34.10;;;21.63;;
47589;SDS011;33316;52.298;9.056;2023-05-07T03:24:15;34.72;;;21.80;;
47589;SDS011;33316;52.298;9.056;2023-05-07T03:26:42;34.28;;;21.98;;
47589;SDS011;33316;52.298;9.056;2023-05-07T03:29:08;33.17;;;22.10;;
47589;SDS011;33316;52.298;9.056;2023-05-07T03:31:35;33.70;;;20.50;;
47589;SDS011;33316;52.298;9.056;2023-05-07T03:34:02;31.30;;;20.75;;
47589;SDS011;33316;52.298;9.056;2023-05-07T03:36:29;35.53;;;19.73;;
47589;SDS011;33316;52.298;9.056;2023-05-07T03:38:56;31.13;;;19.48;;
47589;SDS011;33316;52.298;9.056;2023-05-07T03:41:23;35.75;;;22.25;;
47589;SDS011;33316;52.298;9.056;2023-05-07T03:43:50;30.23;;;19.23;;
47589;SDS011;33316;52.298;9.056;2023-05-07T03:46:17;28.10;;;19.17;;
47589;SDS011;33316;52.298;9.056;2023-05-07T03:48:43;31.80;;;19.33;;
47589;SDS011;33316;52.298;9.056;2023-05-07T03:51:10;27.85;;;18.02;;
47589;SDS011;33316;52.298;9.056;2023-05-07T03:53:38;31.30;;;19.20;;
47589;SDS011;33316;52.298;9.056;2023-05-07T03:56:05;28.08;;;18.63;;
47589;SDS011;33316;52.298;9.056;2023-05-07T03:58:32;29.85;;;18.08;;
47589;SDS011;33316;52.298;9.056;2023-05-07T04:00:58;28.75;;;18.33;;
47589;SDS011;33316;52.298;9.056;2023-05-07T04:03:26;28.25;;;17.77;;
47589;SDS011;33316;52.298;9.056;2023-05-07T04:05:52;27.38;;;16.58;;
47589;SDS011;33316;52.298;9.056;2023-05-07T04:08:19;25.90;;;16.33;;
47589;SDS011;33316;52.298;9.056;2023-05-07T04:10:47;24.67;;;16.27;;
47589;SDS011;33316;52.298;9.056;2023-05-07T04:13:14;29.00;;;18.58;;
47589;SDS011;33316;52.298;9.056;2023-05-07T04:15:40;26.67;;;17.63;;
47589;SDS011;33316;52.298;9.056;2023-05-07T04:18:07;29.80;;;17.85;;
47589;SDS011;33316;52.298;9.056;2023-05-07T04:20:33;23.48;;;15.88;;
47589;SDS011;33316;52.298;9.056;2023-05-07T04:23:01;29.38;;;19.10;;
47589;SDS011;33316;52.298;9.056;2023-05-07T04:25:27;27.27;;;16.25;;
47589;SDS011;33316;52.298;9.056;2023-05-07T04:27:55;22.75;;;15.95;;
47589;SDS011;33316;52.298;9.056;2023-05-07T04:30:22;22.33;;;15.90;;
47589;SDS011;33316;52.298;9.056;2023-05-07T04:32:49;25.00;;;15.20;;
47589;SDS011;33316;52.298;9.056;2023-05-07T04:35:15;22.88;;;15.20;;
47589;SDS011;33316;52.298;9.056;2023-05-07T04:37:42;25.92;;;17.05;;
47589;SDS011;33316;52.298;9.056;2023-05-07T04:40:09;21.70;;;14.63;;
47589;SDS011;33316;52.298;9.056;2023-05-07T04:42:36;19.58;;;13.68;;
47589;SDS011;33316;52.298;9.056;2023-05-07T04:45:04;23.90;;;15.82;;
47589;SDS011;33316;52.298;9.056;2023-05-07T04:47:31;19.13;;;13.52;;
47589;SDS011;33316;52.298;9.056;2023-05-07T04:49:58;22.67;;;15.00;;
47589;SDS011;33316;52.298;9.056;2023-05-07T04:52:25;22.27;;;14.98;;
47589;SDS011;33316;52.298;9.056;2023-05-07T04:54:51;23.00;;;13.63;;
47589;SDS011;33316;52.298;9.056;2023-05-07T04:57:18;20.10;;;13.88;;
47589;SDS011;33316;52.298;9.056;2023-05-07T04:59:45;19.83;;;13.98;;
47589;SDS011;33316;52.298;9.056;2023-05-07T05:02:13;20.90;;;14.57;;
47589;SDS011;33316;52.298;9.056;2023-05-07T05:04:39;21.88;;;13.75;;
47589;SDS011;33316;52.298;9.056;2023-05-07T05:07:06;22.73;;;15.07;;
47589;SDS011;33316;52.298;9.056;2023-05-07T05:09:32;21.55;;;14.65;;
47589;SDS011;33316;52.298;9.056;2023-05-07T05:11:59;20.70;;;14.05;;
47589;SDS011;33316;52.298;9.056;2023-05-07T05:14:26;17.85;;;13.80;;
47589;SDS011;33316;52.298;9.056;2023-05-07T05:16:52;20.85;;;14.18;;
47589;SDS011;33316;52.298;9.056;2023-05-07T05:19:20;18.67;;;12.68;;
47589;SDS011;33316;52.298;9.056;2023-05-07T05:21:47;18.83;;;13.02;;
47589;SDS011;33316;52.298;9.056;2023-05-07T05:24:14;19.17;;;13.23;;
47589;SDS011;33316;52.298;9.056;2023-05-07T05:26:41;24.83;;;15.45;;
47589;SDS011;33316;52.298;9.056;2023-05-07T05:29:07;21.75;;;15.20;;
47589;SDS011;33316;52.298;9.056;2023-05-07T05:31:35;21.98;;;14.68;;
47589;SDS011;33316;52.298;9.056;2023-05-07T05:34:02;20.60;;;13.90;;
47589;SDS011;33316;52.298;9.056;2023-05-07T05:36:30;17.17;;;12.27;;
47589;SDS011;33316;52.298;9.056;2023-05-07T05:38:56;15.80;;;11.65;;
47589;SDS011;33316;52.298;9.056;2023-05-07T05:41:23;19.13;;;13.20;;
47589;SDS011;33316;52.298;9.056;2023-05-07T05:43:50;18.73;;;13.30;;
47589;SDS011;33316;52.298;9.056;2023-05-07T05:46:16;18.35;;;12.75;;
47589;SDS011;33316;52.298;9.056;2023-05-07T05:48:43;18.65;;;12.52;;
47589;SDS011;33316;52.298;9.056;2023-05-07T05:51:09;18.75;;;13.05;;
47589;SDS011;33316;52.298;9.056;2023-05-07T05:53:37;18.88;;;12.90;;
47589;SDS011;33316;52.298;9.056;2023-05-07T05:56:04;17.85;;;13.00;;
47589;SDS011;33316;52.298;9.056;2023-05-07T05:58:31;20.05;;;13.52;;
47589;SDS011;33316;52.298;9.056;2023-05-07T06:00:58;18.48;;;12.40;;
47589;SDS011;33316;52.298;9.056;2023-05-07T06:03:27;17.58;;;12.98;;
47589;SDS011;33316;52.298;9.056;2023-05-07T06:05:54;19.23;;;12.98;;
47589;SDS011;33316;52.298;9.056;2023-05-07T06:08:20;17.38;;;12.30;;
47589;SDS011;33316;52.298;9.056;2023-05-07T06:10:48;19.77;;;13.52;;
47589;SDS011;33316;52.298;9.056;2023-05-07T06:13:15;17.75;;;12.35;;
47589;SDS011;33316;52.298;9.056;2023-05-07T06:15:42;17.05;;;11.85;;
47589;SDS011;33316;52.298;9.056;2023-05-07T06:18:08;15.10;;;11.38;;
47589;SDS011;33316;52.298;9.056;2023-05-07T06:20:35;19.55;;;12.10;;
47589;SDS011;33316;52.298;9.056;2023-05-07T06:23:02;19.13;;;12.10;;
47589;SDS011;33316;52.298;9.056;2023-05-07T06:25:28;18.52;;;13.13;;
47589;SDS011;33316;52.298;9.056;2023-05-07T06:27:56;15.05;;;10.77;;
47589;SDS011;33316;52.298;9.056;2023-05-07T06:30:23;16.27;;;10.93;;
47589;SDS011;33316;52.298;9.056;2023-05-07T06:32:50;17.67;;;10.75;;
47589;SDS011;33316;52.298;9.056;2023-05-07T06:35:16;14.48;;;10.63;;
47589;SDS011;33316;52.298;9.056;2023-05-07T06:37:44;14.35;;;9.88;;
47589;SDS011;33316;52.298;9.056;2023-05-07T06:40:11;15.63;;;9.93;;
47589;SDS011;33316;52.298;9.056;2023-05-07T06:42:37;17.33;;;11.18;;
47589;SDS011;33316;52.298;9.056;2023-05-07T06:45:06;16.33;;;11.23;;
47589;SDS011;33316;52.298;9.056;2023-05-07T06:47:34;16.80;;;10.55;;
47589;SDS011;33316;52.298;9.056;2023-05-07T06:50:00;16.60;;;10.80;;
47589;SDS011;33316;52.298;9.056;2023-05-07T06:52:27;15.57;;;10.00;;
47589;SDS011;33316;52.298;9.056;2023-05-07T06:54:54;15.48;;;10.98;;
47589;SDS011;33316;52.298;9.056;2023-05-07T06:57:20;14.30;;;10.35;;
47589;SDS011;33316;52.298;9.056;2023-05-07T06:59:47;15.93;;;10.52;;
47589;SDS011;33316;52.298;9.056;2023-05-07T07:02:15;13.25;;;9.13;;
47589;SDS011;33316;52.298;9.056;2023-05-07T07:04:41;14.27;;;10.70;;
47589;SDS011;33316;52.298;9.056;2023-05-07T07:07:09;15.00;;;10.07;;
47589;SDS011;33316;52.298;9.056;2023-05-07T07:09:36;16.05;;;10.15;;
47589;SDS011;33316;52.298;9.056;2023-05-07T07:12:03;15.55;;;10.68;;
47589;SDS011;33316;52.298;9.056;2023-05-07T07:14:30;16.55;;;11.07;;
47589;SDS011;33316;52.298;9.056;2023-05-07T07:16:56;16.45;;;10.95;;
47589;SDS011;33316;52.298;9.056;2023-05-07T07:19:25;16.42;;;10.90;;
47589;SDS011;33316;52.298;9.056;2023-05-07T07:21:52;16.15;;;10.32;;
47589;SDS011;33316;52.298;9.056;2023-05-07T07:24:18;16.40;;;10.70;;
47589;SDS011;33316;52.298;9.056;2023-05-07T07:26:46;15.65;;;10.00;;
47589;SDS011;33316;52.298;9.056;2023-05-07T07:29:12;14.32;;;10.35;;
47589;SDS011;33316;52.298;9.056;2023-05-07T07:31:39;14.27;;;10.10;;
47589;SDS011;33316;52.298;9.056;2023-05-07T07:34:06;14.82;;;10.13;;
47589;SDS011;33316;52.298;9.056;2023-05-07T07:36:34;13.68;;;9.18;;
47589;SDS011;33316;52.298;9.056;2023-05-07T07:39:01;17.17;;;11.25;;
47589;SDS011;33316;52.298;9.056;2023-05-07T07:41:27;16.17;;;11.32;;
47589;SDS011;33316;52.298;9.056;2023-05-07T07:43:54;14.65;;;10.13;;
47589;SDS011;33316;52.298;9.056;2023-05-07T07:46:20;14.52;;;9.35;;
47589;SDS011;33316;52.298;9.056;2023-05-07T07:48:47;18.42;;;11.75;;
47589;SDS011;33316;52.298;9.056;2023-05-07T07:51:14;17.30;;;10.75;;
47589;SDS011;33316;52.298;9.056;2023-05-07T07:53:48;15.73;;;11.02;;
47589;SDS011;33316;52.298;9.056;2023-05-07T07:56:16;16.13;;;10.70;;
47589;SDS011;33316;52.298;9.056;2023-05-07T07:58:42;18.73;;;11.10;;
47589;SDS011;33316;52.298;9.056;2023-05-07T08:01:09;15.68;;;10.48;;
47589;SDS011;33316;52.298;9.056;2023-05-07T08:03:37;15.48;;;10.32;;
47589;SDS011;33316;52.298;9.056;2023-05-07T08:06:04;15.23;;;10.15;;
47589;SDS011;33316;52.298;9.056;2023-05-07T08:08:30;20.80;;;12.82;;
47589;SDS011;33316;52.298;9.056;2023-05-07T08:10:58;14.82;;;10.57;;
47589;SDS011;33316;52.298;9.056;2023-05-07T08:13:25;15.07;;;10.80;;
47589;SDS011;33316;52.298;9.056;2023-05-07T08:15:52;17.17;;;10.68;;
47589;SDS011;33316;52.298;9.056;2023-05-07T08:18:19;18.50;;;11.65;;
47589;SDS011;33316;52.298;9.056;2023-05-07T08:20:45;16.65;;;11.20;;
47589;SDS011;33316;52.298;9.056;2023-05-07T08:23:12;16.92;;;10.65;;
47589;SDS011;33316;52.298;9.056;2023-05-07T08:25:41;16.20;;;10.90;;
47589;SDS011;33316;52.298;9.056;2023-05-07T08:28:09;15.88;;;10.45;;
47589;SDS011;33316;52.298;9.056;2023-05-07T08:30:36;14.50;;;10.30;;
47589;SDS011;33316;52.298;9.056;2023-05-07T08:33:03;14.90;;;10.93;;
47589;SDS011;33316;52.298;9.056;2023-05-07T08:35:29;15.80;;;10.48;;
47589;SDS011;33316;52.298;9.056;2023-05-07T08:37:56;16.75;;;10.70;;
47589;SDS011;33316;52.298;9.056;2023-05-07T08:40:26;14.90;;;10.45;;
47589;SDS011;33316;52.298;9.056;2023-05-07T08:43:01;17.48;;;11.77;;
47589;SDS011;33316;52.298;9.056;2023-05-07T08:45:32;14.07;;;10.02;;
47589;SDS011;33316;52.298;9.056;2023-05-07T08:48:02;15.38;;;9.90;;
47589;SDS011;33316;52.298;9.056;2023-05-07T08:50:31;15.27;;;9.52;;
47589;SDS011;33316;52.298;9.056;2023-05-07T08:52:57;12.95;;;9.27;;
47589;SDS011;33316;52.298;9.056;2023-05-07T08:55:28;14.85;;;10.30;;
47589;SDS011;33316;52.298;9.056;2023-05-07T08:58:00;12.52;;;9.00;;
47589;SDS011;33316;52.298;9.056;2023-05-07T09:00:27;13.25;;;8.32;;
47589;SDS011;33316;52.298;9.056;2023-05-07T09:02:55;13.82;;;9.27;;
47589;SDS011;33316;52.298;9.056;2023-05-07T09:05:23;12.88;;;8.57;;
47589;SDS011;33316;52.298;9.056;2023-05-07T09:07:50;12.15;;;8.82;;
47589;SDS011;33316;52.298;9.056;2023-05-07T09:10:17;13.73;;;9.13;;
47589;SDS011;33316;52.298;9.056;2023-05-07T09:12:44;12.13;;;8.77;;
47589;SDS011;33316;52.298;9.056;2023-05-07T09:15:12;11.35;;;7.90;;
47589;SDS011;33316;52.298;9.056;2023-05-07T09:17:39;13.02;;;8.55;;
47589;SDS011;33316;52.298;9.056;2023-05-07T09:20:11;13.13;;;9.40;;
47589;SDS011;33316;52.298;9.056;2023-05-07T09:22:38;13.57;;;8.55;;
47589;SDS011;33316;52.298;9.056;2023-05-07T09:25:05;11.88;;;8.70;;
47589;SDS011;33316;52.298;9.056;2023-05-07T09:27:33;10.73;;;8.05;;
47589;SDS011;33316;52.298;9.056;2023-05-07T09:30:02;13.25;;;7.97;;
47589;SDS011;33316;52.298;9.056;2023-05-07T09:32:30;11.00;;;8.33;;
47589;SDS011;33316;52.298;9.056;2023-05-07T09:35:04;12.30;;;8.05;;
47589;SDS011;33316;52.298;9.056;2023-05-07T09:37:33;10.43;;;7.88;;
47589;SDS011;33316;52.298;9.056;2023-05-07T09:40:01;11.80;;;8.32;;
47589;SDS011;33316;52.298;9.056;2023-05-07T09:42:28;10.68;;;7.53;;
47589;SDS011;33316;52.298;9.056;2023-05-07T09:44:55;11.02;;;7.72;;
47589;SDS011;33316;52.298;9.056;2023-05-07T09:47:23;9.13;;;6.72;;
47589;SDS011;33316;52.298;9.056;2023-05-07T09:49:50;10.85;;;7.50;;
47589;SDS011;33316;52.298;9.056;2023-05-07T09:52:22;10.30;;;7.32;;
47589;SDS011;33316;52.298;9.056;2023-05-07T09:54:51;8.55;;;6.60;;
47589;SDS011;33316;52.298;9.056;2023-05-07T09:57:20;8.32;;;6.50;;
47589;SDS011;33316;52.298;9.056;2023-05-07T09:59:47;8.73;;;6.55;;
47589;SDS011;33316;52.298;9.056;2023-05-07T10:02:17;8.25;;;6.65;;
47589;SDS011;33316;52.298;9.056;2023-05-07T10:04:48;9.35;;;6.47;;
47589;SDS011;33316;52.298;9.056;2023-05-07T10:07:15;8.60;;;6.43;;
47589;SDS011;33316;52.298;9.056;2023-05-07T10:09:44;8.27;;;6.75;;
47589;SDS011;33316;52.298;9.056;2023-05-07T10:12:13;7.95;;;5.53;;
47589;SDS011;33316;52.298;9.056;2023-05-07T10:14:43;7.63;;;5.63;;
47589;SDS011;33316;52.298;9.056;2023-05-07T10:17:11;7.32;;;6.35;;
47589;SDS011;33316;52.298;9.056;2023-05-07T10:19:41;8.20;;;6.47;;
47589;SDS011;33316;52.298;9.056;2023-05-07T10:22:13;8.60;;;6.40;;
47589;SDS011;33316;52.298;9.056;2023-05-07T10:24:41;8.63;;;6.47;;
47589;SDS011;33316;52.298;9.056;2023-05-07T10:27:11;8.20;;;5.93;;
47589;SDS011;33316;52.298;9.056;2023-05-07T10:29:48;9.52;;;6.95;;
47589;SDS011;33316;52.298;9.056;2023-05-07T10:32:27;7.65;;;6.50;;
47589;SDS011;33316;52.298;9.056;2023-05-07T10:35:02;8.93;;;6.68;;
47589;SDS011;33316;52.298;9.056;2023-05-07T10:37:32;9.35;;;6.95;;
47589;SDS011;33316;52.298;9.056;2023-05-07T10:39:59;7.90;;;6.60;;
47589;SDS011;33316;52.298;9.056;2023-05-07T10:42:30;8.93;;;6.95;;
47589;SDS011;33316;52.298;9.056;2023-05-07T10:44:57;9.90;;;7.32;;
47589;SDS011;33316;52.298;9.056;2023-05-07T10:47:27;8.93;;;6.75;;
47589;SDS011;33316;52.298;9.056;2023-05-07T10:58:57;9.02;;;7.40;;
47589;SDS011;33316;52.298;9.056;2023-05-07T11:02:00;10.15;;;6.75;;
47589;SDS011;33316;52.298;9.056;2023-05-07T11:04:29;8.30;;;6.13;;
47589;SDS011;33316;52.298;9.056;2023-05-07T11:07:20;9.50;;;6.70;;
47589;SDS011;33316;52.298;9.056;2023-05-07T11:10:00;9.88;;;6.72;;
47589;SDS011;33316;52.298;9.056;2023-05-07T11:12:46;8.10;;;6.38;;
47589;SDS011;33316;52.298;9.056;2023-05-07T11:15:39;8.82;;;6.50;;
47589;SDS011;33316;52.298;9.056;2023-05-07T11:18:11;9.05;;;6.63;;
47589;SDS011;33316;52.298;9.056;2023-05-07T11:20:54;8.52;;;6.22;;
47589;SDS011;33316;52.298;9.056;2023-05-07T11:26:41;10.75;;;7.07;;
47589;SDS011;33316;52.298;9.056;2023-05-07T11:29:17;8.45;;;6.18;;
47589;SDS011;33316;52.298;9.056;2023-05-07T11:31:46;7.75;;;5.97;;
47589;SDS011;33316;52.298;9.056;2023-05-07T11:34:15;7.30;;;5.65;;
47589;SDS011;33316;52.298;9.056;2023-05-07T11:36:47;9.82;;;7.00;;
47589;SDS011;33316;52.298;9.056;2023-05-07T11:39:24;10.85;;;6.95;;
47589;SDS011;33316;52.298;9.056;2023-05-07T11:41:56;8.95;;;7.15;;
47589;SDS011;33316;52.298;9.056;2023-05-07T11:44:23;8.57;;;5.95;;
47589;SDS011;33316;52.298;9.056;2023-05-07T11:46:51;8.40;;;6.82;;
47589;SDS011;33316;52.298;9.056;2023-05-07T11:49:18;12.57;;;6.45;;
47589;SDS011;33316;52.298;9.056;2023-05-07T11:51:45;8.73;;;6.82;;
47589;SDS011;33316;52.298;9.056;2023-05-07T11:54:17;8.80;;;6.90;;
47589;SDS011;33316;52.298;9.056;2023-05-07T11:56:44;8.98;;;6.72;;
47589;SDS011;33316;52.298;9.056;2023-05-07T11:59:12;9.18;;;7.15;;
47589;SDS011;33316;52.298;9.056;2023-05-07T12:01:45;10.23;;;7.88;;
47589;SDS011;33316;52.298;9.056;2023-05-07T12:04:20;8.73;;;6.53;;
47589;SDS011;33316;52.298;9.056;2023-05-07T12:06:47;10.23;;;7.85;;
47589;SDS011;33316;52.298;9.056;2023-05-07T12:09:15;10.57;;;7.78;;
47589;SDS011;33316;52.298;9.056;2023-05-07T12:11:44;10.95;;;8.50;;
47589;SDS011;33316;52.298;9.056;2023-05-07T12:14:12;10.10;;;7.65;;
47589;SDS011;33316;52.298;9.056;2023-05-07T12:16:40;11.38;;;8.35;;
47589;SDS011;33316;52.298;9.056;2023-05-07T12:19:10;9.98;;;7.70;;
47589;SDS011;33316;52.298;9.056;2023-05-07T12:21:39;11.50;;;8.48;;
47589;SDS011;33316;52.298;9.056;2023-05-07T12:24:08;10.85;;;8.90;;
47589;SDS011;33316;52.298;9.056;2023-05-07T12:26:37;9.82;;;8.30;;
47589;SDS011;33316;52.298;9.056;2023-05-07T12:29:05;10.07;;;8.63;;
47589;SDS011;33316;52.298;9.056;2023-05-07T12:31:32;12.05;;;9.07;;
47589;SDS011;33316;52.298;9.056;2023-05-07T12:34:02;13.77;;;9.85;;
47589;SDS011;33316;52.298;9.056;2023-05-07T12:36:35;13.07;;;8.45;;
47589;SDS011;33316;52.298;9.056;2023-05-07T12:39:05;11.18;;;8.75;;
47589;SDS011;33316;52.298;9.056;2023-05-07T12:41:35;10.25;;;7.95;;
47589;SDS011;33316;52.298;9.056;2023-05-07T12:44:03;9.70;;;8.07;;
47589;SDS011;33316;52.298;9.056;2023-05-07T12:46:31;10.68;;;8.05;;
47589;SDS011;33316;52.298;9.056;2023-05-07T12:48:58;11.02;;;8.73;;
47589;SDS011;33316;52.298;9.056;2023-05-07T12:51:25;10.85;;;8.30;;
47589;SDS011;33316;52.298;9.056;2023-05-07T12:53:55;8.45;;;7.03;;
47589;SDS011;33316;52.298;9.056;2023-05-07T12:56:24;9.55;;;7.38;;
47589;SDS011;33316;52.298;9.056;2023-05-07T12:58:51;9.45;;;7.47;;
47589;SDS011;33316;52.298;9.056;2023-05-07T13:01:17;10.88;;;8.57;;
47589;SDS011;33316;52.298;9.056;2023-05-07T13:03:47;7.88;;;7.07;;
47589;SDS011;33316;52.298;9.056;2023-05-07T13:06:15;8.57;;;7.50;;
47589;SDS011;33316;52.298;9.056;2023-05-07T13:08:41;9.32;;;7.47;;
47589;SDS011;33316;52.298;9.056;2023-05-07T13:11:08;7.15;;;6.10;;
47589;SDS011;33316;52.298;9.056;2023-05-07T13:13:44;9.15;;;7.18;;
47589;SDS011;33316;52.298;9.056;2023-05-07T13:16:11;9.25;;;7.22;;
47589;SDS011;33316;52.298;9.056;2023-05-07T13:18:38;9.10;;;7.00;;
47589;SDS011;33316;52.298;9.056;2023-05-07T13:21:05;7.82;;;6.38;;
47589;SDS011;33316;52.298;9.056;2023-05-07T13:23:33;8.65;;;6.60;;
47589;SDS011;33316;52.298;9.056;2023-05-07T13:26:07;7.40;;;6.10;;
47589;SDS011;33316;52.298;9.056;2023-05-07T13:28:34;10.25;;;7.00;;
47589;SDS011;33316;52.298;9.056;2023-05-07T13:31:02;9.15;;;6.07;;
47589;SDS011;33316;52.298;9.056;2023-05-07T13:33:32;8.70;;;6.82;;
47589;SDS011;33316;52.298;9.056;2023-05-07T13:35:59;7.03;;;5.93;;
47589;SDS011;33316;52.298;9.056;2023-05-07T13:38:27;7.70;;;6.10;;
47589;SDS011;33316;52.298;9.056;2023-05-07T13:40:54;8.02;;;6.38;;
47589;SDS011;33316;52.298;9.056;2023-05-07T13:43:20;6.80;;;5.53;;
47589;SDS011;33316;52.298;9.056;2023-05-07T13:45:47;7.90;;;6.88;;
47589;SDS011;33316;52.298;9.056;2023-05-07T13:48:15;7.13;;;6.20;;
47589;SDS011;33316;52.298;9.056;2023-05-07T13:50:41;7.20;;;5.55;;
47589;SDS011;33316;52.298;9.056;2023-05-07T13:53:08;6.63;;;5.93;;
47589;SDS011;33316;52.298;9.056;2023-05-07T13:55:35;7.82;;;7.00;;
47589;SDS011;33316;52.298;9.056;2023-05-07T13:58:02;10.82;;;6.38;;
47589;SDS011;33316;52.298;9.056;2023-05-07T14:00:29;8.07;;;5.32;;
47589;SDS011;33316;52.298;9.056;2023-05-07T14:02:55;9.25;;;6.13;;
47589;SDS011;33316;52.298;9.056;2023-05-07T14:05:25;9.23;;;6.65;;
47589;SDS011;33316;52.298;9.056;2023-05-07T14:07:53;6.88;;;5.55;;
47589;SDS011;33316;52.298;9.056;2023-05-07T14:10:20;6.50;;;5.63;;
47589;SDS011;33316;52.298;9.056;2023-05-07T14:12:47;6.05;;;4.82;;
47589;SDS011;33316;52.298;9.056;2023-05-07T14:15:13;6.00;;;5.03;;
47589;SDS011;33316;52.298;9.056;2023-05-07T14:17:43;7.05;;;5.75;;
47589;SDS011;33316;52.298;9.056;2023-05-07T14:20:11;6.72;;;5.47;;
47589;SDS011;33316;52.298;9.056;2023-05-07T14:22:39;7.57;;;5.35;;
47589;SDS011;33316;52.298;9.056;2023-05-07T14:25:09;6.38;;;4.38;;
47589;SDS011;33316;52.298;9.056;2023-05-07T14:27:40;5.53;;;4.32;;
47589;SDS011;33316;52.298;9.056;2023-05-07T14:30:10;6.00;;;4.22;;
47589;SDS011;33316;52.298;9.056;2023-05-07T14:32:37;7.55;;;4.90;;
47589;SDS011;33316;52.298;9.056;2023-05-07T14:35:04;7.63;;;5.55;;
47589;SDS011;33316;52.298;9.056;2023-05-07T14:37:36;5.82;;;4.78;;
47589;SDS011;33316;52.298;9.056;2023-05-07T14:40:07;8.18;;;5.63;;
47589;SDS011;33316;52.298;9.056;2023-05-07T14:42:34;7.22;;;4.95;;
47589;SDS011;33316;52.298;9.056;2023-05-07T14:45:01;5.20;;;4.30;;
47589;SDS011;33316;52.298;9.056;2023-05-07T14:47:34;5.32;;;4.55;;
47589;SDS011;33316;52.298;9.056;2023-05-07T14:50:04;9.48;;;4.75;;